Time;durP1;ratioP1;P1;durP2;ratioP2;P2;SDS_P1;SDS_P2;PMS_P1;PMS_P2;Temp;Humidity;BMP_temperature;BMP_pressure;BME280_temperature;BME280_humidity;BME280_pressure;Samples;Min_cycle;Max_cycle;Signal;HPM_P1;HPM_P2
2023/07/26 00:00:34;;;;;;;5.03;1.93;;;14.50;99.90;;;;;;5094275;28;20193;-69
2023/07/26 00:03:00;;;;;;;4.67;1.50;;;14.50;99.90;;;;;;5076794;28;20216;-70
2023/07/26 00:05:25;;;;;;;2.50;2.30;;;14.60;99.90;;;;;;5081990;28;20185;-69
2023/07/26 00:07:51;;;;;;;2.30;1.53;;;14.60;99.90;;;;;;5093952;28;20196;-70
2023/07/26 00:10:16;;;;;;;1.70;1.60;;;14.70;99.90;;;;;;5095521;28;20557;-70
2023/07/26 00:12:42;;;;;;;2.93;2.10;;;14.70;99.90;;;;;;5095447;28;20165;-69
2023/07/26 00:15:08;;;;;;;2.47;2.03;;;14.80;99.90;;;;;;5093397;28;20544;-70
2023/07/26 00:17:33;;;;;;;1.80;1.70;;;14.80;99.90;;;;;;5095198;28;20249;-70
2023/07/26 00:19:59;;;;;;;2.07;1.70;;;14.80;99.90;;;;;;5082736;28;20569;-70
2023/07/26 00:22:24;;;;;;;1.73;1.57;;;14.80;99.90;;;;;;5095357;28;20190;-69
2023/07/26 00:24:50;;;;;;;1.93;1.73;;;14.90;99.90;;;;;;5095071;28;20281;-70
2023/07/26 00:27:17;;;;;;;1.93;1.73;;;14.80;99.90;;;;;;5094938;28;20193;-70
2023/07/26 00:29:42;;;;;;;2.07;1.53;;;14.90;99.90;;;;;;5093765;28;20193;-69
2023/07/26 00:32:08;;;;;;;1.40;1.30;;;14.90;99.90;;;;;;5088295;28;20420;-69
2023/07/26 00:34:35;;;;;;;1.40;1.20;;;15.00;99.90;;;;;;5090259;28;20268;-70
2023/07/26 00:37:03;;;;;;;7.20;1.80;;;15.00;99.90;;;;;;5085646;28;20181;-69
2023/07/26 00:39:30;;;;;;;3.80;1.70;;;15.00;99.90;;;;;;5093099;28;20463;-70
2023/07/26 00:41:55;;;;;;;4.40;2.30;;;15.00;99.90;;;;;;5094545;28;20408;-70
2023/07/26 00:44:21;;;;;;;2.10;1.30;;;15.10;99.90;;;;;;5087677;28;20463;-70
2023/07/26 00:46:47;;;;;;;4.30;1.90;;;15.10;99.90;;;;;;5092635;28;20169;-69
2023/07/26 00:49:12;;;;;;;1.77;1.67;;;15.10;99.90;;;;;;5086467;28;20193;-69
2023/07/26 00:51:38;;;;;;;1.50;1.40;;;15.10;99.90;;;;;;5094440;28;20793;-70
2023/07/26 00:54:06;;;;;;;1.50;1.00;;;15.10;99.90;;;;;;5076505;28;20178;-69
2023/07/26 00:56:35;;;;;;;3.87;1.30;;;15.10;99.90;;;;;;5072719;28;20466;-69
2023/07/26 00:59:01;;;;;;;2.07;1.70;;;15.10;99.90;;;;;;5088332;28;20850;-70
2023/07/26 01:01:27;;;;;;;1.50;1.33;;;15.10;99.90;;;;;;5093881;28;20411;-70
2023/07/26 01:03:53;;;;;;;1.83;1.73;;;15.10;99.90;;;;;;5084613;28;20463;-69
2023/07/26 01:06:41;;;;;;;2.20;1.67;;;15.10;99.90;;;;;;5091126;28;20174;-70
2023/07/26 01:09:25;;;;;;;1.63;1.53;;;15.10;99.90;;;;;;5074484;28;20582;-70
2023/07/26 01:12:01;;;;;;;2.40;1.83;;;15.10;99.90;;;;;;5074018;28;20961;-70
2023/07/26 01:14:57;;;;;;;1.67;1.20;;;15.00;99.90;;;;;;5072734;28;20422;-69
2023/07/26 01:17:23;;;;;;;4.10;1.60;;;15.10;99.90;;;;;;5076402;28;20842;-70
2023/07/26 01:19:48;;;;;;;1.70;1.60;;;15.00;99.90;;;;;;5084546;28;20448;-70
2023/07/26 01:22:14;;;;;;;2.43;2.00;;;15.00;99.90;;;;;;5087705;28;20223;-70
2023/07/26 01:24:39;;;;;;;2.07;1.43;;;14.90;99.90;;;;;;5082038;28;20226;-69
2023/07/26 01:27:05;;;;;;;13.50;2.47;;;14.90;99.90;;;;;;5086047;28;20178;-69
2023/07/26 01:29:30;;;;;;;2.00;1.80;;;14.90;99.90;;;;;;5085002;28;20200;-70
2023/07/26 01:31:56;;;;;;;2.80;2.00;;;14.90;99.90;;;;;;5086032;28;20194;-69
2023/07/26 01:34:22;;;;;;;1.87;1.53;;;14.90;99.90;;;;;;5084994;28;20535;-69
2023/07/26 01:36:51;;;;;;;2.50;1.77;;;14.90;99.90;;;;;;5090150;28;20189;-70
2023/07/26 01:39:18;;;;;;;1.50;1.33;;;14.90;99.90;;;;;;5093674;28;20491;-70
2023/07/26 01:41:44;;;;;;;1.70;1.60;;;14.90;99.90;;;;;;5093825;28;20788;-69
2023/07/26 01:44:11;;;;;;;4.17;1.73;;;14.90;99.90;;;;;;5088733;28;20451;-70
2023/07/26 01:46:36;;;;;;;7.40;1.70;;;14.90;99.90;;;;;;5085204;28;20444;-69
2023/07/26 01:49:02;;;;;;;2.47;1.87;;;14.80;99.90;;;;;;5083282;28;20819;-70
2023/07/26 01:51:27;;;;;;;1.70;1.57;;;14.80;99.90;;;;;;5091596;28;20177;-70
2023/07/26 01:53:53;;;;;;;2.00;1.60;;;14.80;99.90;;;;;;5090538;28;20196;-69
2023/07/26 01:56:18;;;;;;;1.80;1.70;;;14.70;99.90;;;;;;5091766;28;20207;-70
2023/07/26 01:58:44;;;;;;;2.40;1.70;;;14.80;99.90;;;;;;5093460;28;20185;-70
2023/07/26 02:01:09;;;;;;;2.13;1.93;;;14.70;99.90;;;;;;5081766;28;20261;-69
2023/07/26 02:03:35;;;;;;;3.20;1.67;;;14.70;99.90;;;;;;5088736;28;20193;-69
2023/07/26 02:06:00;;;;;;;1.73;1.53;;;14.70;99.90;;;;;;5091246;28;20693;-69
2023/07/26 02:08:26;;;;;;;7.70;2.43;;;14.70;99.90;;;;;;5091919;28;20655;-69
2023/07/26 02:10:52;;;;;;;7.17;1.90;;;14.70;99.90;;;;;;5091367;28;20165;-70
2023/07/26 02:13:18;;;;;;;1.67;1.57;;;14.70;99.90;;;;;;5085080;28;20435;-70
2023/07/26 02:15:44;;;;;;;1.97;1.77;;;14.70;99.90;;;;;;5087049;28;20647;-69
2023/07/26 02:18:10;;;;;;;2.87;2.27;;;14.70;99.90;;;;;;5085923;28;20238;-70
2023/07/26 02:20:35;;;;;;;3.87;2.20;;;14.70;99.90;;;;;;5088085;28;20456;-70
2023/07/26 02:23:01;;;;;;;2.70;1.70;;;14.60;99.90;;;;;;5087922;28;20223;-70
2023/07/26 02:25:27;;;;;;;2.20;2.00;;;14.50;99.90;;;;;;5088697;28;20213;-70
2023/07/26 02:27:52;;;;;;;2.07;1.90;;;14.50;99.90;;;;;;5090194;28;20435;-70
2023/07/26 02:30:18;;;;;;;3.40;2.30;;;14.60;99.90;;;;;;5085851;28;20193;-69
2023/07/26 02:32:43;;;;;;;1.93;1.80;;;14.50;99.90;;;;;;5086681;28;20170;-69
2023/07/26 02:35:09;;;;;;;4.30;1.90;;;14.50;99.90;;;;;;5084400;28;20550;-70
2023/07/26 02:37:34;;;;;;;5.57;2.67;;;14.50;99.90;;;;;;5088925;28;20729;-69
2023/07/26 02:40:00;;;;;;;6.57;3.00;;;14.50;99.90;;;;;;5089714;28;20198;-69
2023/07/26 02:42:27;;;;;;;2.47;2.10;;;14.40;99.90;;;;;;5084680;28;20173;-69
2023/07/26 02:44:54;;;;;;;3.57;2.07;;;14.40;99.90;;;;;;5081475;28;20240;-69
2023/07/26 02:47:19;;;;;;;2.97;2.27;;;14.40;99.90;;;;;;5089385;28;20435;-69
2023/07/26 02:49:45;;;;;;;3.40;2.53;;;14.40;99.90;;;;;;5091171;28;20839;-69
2023/07/26 02:52:11;;;;;;;2.77;2.57;;;14.40;99.90;;;;;;5085223;28;20177;-69
2023/07/26 02:54:37;;;;;;;2.90;2.60;;;14.40;99.90;;;;;;5089208;28;20492;-69
2023/07/26 02:57:02;;;;;;;2.00;1.90;;;14.30;99.90;;;;;;5091104;28;20173;-69
2023/07/26 02:59:28;;;;;;;2.43;2.23;;;14.30;99.90;;;;;;5080891;28;20198;-69
2023/07/26 03:01:53;;;;;;;2.67;2.00;;;14.30;99.90;;;;;;5086934;28;20509;-69
2023/07/26 03:04:19;;;;;;;3.10;2.63;;;14.30;99.90;;;;;;5081802;28;20201;-70
2023/07/26 03:06:44;;;;;;;2.80;2.40;;;14.20;99.90;;;;;;5083484;28;20635;-69
2023/07/26 03:09:10;;;;;;;2.30;2.07;;;14.20;99.90;;;;;;5087169;28;20212;-69
2023/07/26 03:11:36;;;;;;;2.27;2.07;;;14.20;99.90;;;;;;5091701;28;20170;-69
2023/07/26 03:14:02;;;;;;;5.37;2.27;;;14.20;99.90;;;;;;5090809;28;20169;-69
2023/07/26 03:16:27;;;;;;;2.57;2.37;;;14.20;99.90;;;;;;5087664;28;20435;-69
2023/07/26 03:18:53;;;;;;;2.90;2.60;;;14.10;99.90;;;;;;5091947;28;20204;-69
2023/07/26 03:21:18;;;;;;;2.80;2.37;;;14.10;99.90;;;;;;5082935;28;20223;-69
2023/07/26 03:23:44;;;;;;;3.00;2.63;;;14.10;99.90;;;;;;5091003;28;20603;-69
2023/07/26 03:26:09;;;;;;;2.50;2.30;;;14.10;99.90;;;;;;5084867;28;20169;-69
2023/07/26 03:28:35;;;;;;;2.87;2.40;;;14.00;99.90;;;;;;5092001;28;20239;-69
2023/07/26 03:31:00;;;;;;;5.53;2.30;;;14.00;99.90;;;;;;5086218;28;20173;-69
2023/07/26 03:33:26;;;;;;;8.67;2.73;;;14.00;99.90;;;;;;5087375;28;20176;-69
2023/07/26 03:35:52;;;;;;;6.00;2.80;;;14.00;99.90;;;;;;5090137;28;20248;-69
2023/07/26 03:38:17;;;;;;;2.77;2.57;;;14.00;99.90;;;;;;5089199;28;20239;-69
2023/07/26 03:40:43;;;;;;;2.70;2.50;;;14.00;99.90;;;;;;5091834;28;20174;-69
2023/07/26 03:43:08;;;;;;;2.97;2.60;;;14.00;99.90;;;;;;5080419;28;20174;-69
2023/07/26 03:45:34;;;;;;;4.37;2.73;;;14.00;99.90;;;;;;5079211;28;20519;-69
2023/07/26 03:48:00;;;;;;;2.70;2.10;;;14.00;99.90;;;;;;5084356;28;20177;-68
2023/07/26 03:50:26;;;;;;;3.00;2.80;;;14.00;99.90;;;;;;5089956;28;20221;-69
2023/07/26 03:52:51;;;;;;;3.17;2.87;;;14.00;99.90;;;;;;5088263;28;20197;-69
2023/07/26 03:55:17;;;;;;;4.43;2.57;;;14.00;99.90;;;;;;5083802;28;20213;-69
2023/07/26 03:57:42;;;;;;;4.57;2.50;;;14.00;99.90;;;;;;5091693;28;20631;-69
2023/07/26 04:00:09;;;;;;;8.63;3.17;;;14.10;99.90;;;;;;5081209;28;20293;-69
2023/07/26 04:02:34;;;;;;;2.90;2.60;;;14.00;99.90;;;;;;5071516;28;20516;-69
2023/07/26 04:05:00;;;;;;;3.07;2.50;;;14.10;99.90;;;;;;5082746;28;20462;-69
2023/07/26 04:07:26;;;;;;;2.70;2.50;;;14.10;99.90;;;;;;5089118;28;20260;-69
2023/07/26 04:09:51;;;;;;;2.73;2.53;;;14.10;99.90;;;;;;5084047;28;20295;-69
2023/07/26 04:12:17;;;;;;;2.50;2.30;;;14.10;99.90;;;;;;5076583;28;20178;-69
2023/07/26 04:14:42;;;;;;;4.80;2.03;;;14.10;99.90;;;;;;5088160;28;20174;-69
2023/07/26 04:17:08;;;;;;;2.30;2.10;;;14.20;99.90;;;;;;5084886;28;20178;-69
2023/07/26 04:19:34;;;;;;;1.93;1.83;;;14.20;99.90;;;;;;5083270;28;20231;-69
2023/07/26 04:21:59;;;;;;;3.67;2.30;;;14.30;99.90;;;;;;5083287;28;20174;-69
2023/07/26 04:24:25;;;;;;;1.90;1.80;;;14.40;99.90;;;;;;5076019;28;20624;-69
2023/07/26 04:26:52;;;;;;;2.50;2.30;;;14.50;99.90;;;;;;5092904;28;20240;-69
2023/07/26 04:29:18;;;;;;;2.37;2.17;;;14.60;99.90;;;;;;5093735;28;20198;-68
2023/07/26 04:31:43;;;;;;;2.90;2.70;;;14.70;99.90;;;;;;5096887;28;20469;-68
2023/07/26 04:34:09;;;;;;;2.87;2.30;;;14.80;99.90;;;;;;5093035;28;20174;-68
2023/07/26 04:36:35;;;;;;;2.57;2.37;;;14.80;99.90;;;;;;5084840;28;20256;-68
2023/07/26 04:39:00;;;;;;;1.80;1.70;;;14.90;99.90;;;;;;5093647;28;20263;-68
2023/07/26 04:41:26;;;;;;;2.10;2.00;;;14.90;99.90;;;;;;5093642;28;20181;-69
2023/07/26 04:43:51;;;;;;;2.23;2.00;;;14.90;99.90;;;;;;5094604;28;20655;-69
2023/07/26 04:46:17;;;;;;;2.50;2.30;;;15.00;99.90;;;;;;5093291;28;20173;-69
2023/07/26 04:48:42;;;;;;;1.87;1.60;;;15.00;99.90;;;;;;5094656;28;20177;-69
2023/07/26 04:51:08;;;;;;;2.27;2.07;;;15.10;99.90;;;;;;5092194;28;20172;-69
2023/07/26 04:53:33;;;;;;;4.90;2.73;;;15.20;99.90;;;;;;5091373;28;20209;-70
2023/07/26 04:55:59;;;;;;;2.30;2.10;;;15.30;99.90;;;;;;5094363;28;20556;-70
2023/07/26 04:58:25;;;;;;;2.50;1.97;;;15.30;99.90;;;;;;5095654;28;20168;-70
2023/07/26 05:00:50;;;;;;;3.60;3.20;;;15.40;99.90;;;;;;5094490;28;20546;-69
2023/07/26 05:03:16;;;;;;;2.23;2.13;;;15.50;99.90;;;;;;5096855;28;20168;-69
2023/07/26 05:05:47;;;;;;;4.20;2.17;;;15.50;99.90;;;;;;5091402;28;20176;-69
2023/07/26 05:08:13;;;;;;;3.87;2.70;;;15.60;99.90;;;;;;5085332;28;20189;-69
2023/07/26 05:10:38;;;;;;;6.97;4.63;;;15.70;99.90;;;;;;5085645;28;21007;-69
2023/07/26 05:13:04;;;;;;;3.43;3.10;;;15.80;99.90;;;;;;5094177;28;20172;-69
2023/07/26 05:15:30;;;;;;;2.53;2.33;;;15.80;99.90;;;;;;5094276;28;20173;-70
2023/07/26 05:17:55;;;;;;;2.80;2.53;;;16.00;99.90;;;;;;5101555;28;20169;-70
2023/07/26 05:20:21;;;;;;;3.07;2.80;;;16.10;99.90;;;;;;5087265;28;20197;-70
2023/07/26 05:22:46;;;;;;;2.83;2.63;;;16.10;99.90;;;;;;5091967;28;20186;-70
2023/07/26 05:25:12;;;;;;;2.87;2.23;;;16.10;99.90;;;;;;5095840;28;20216;-70
2023/07/26 05:27:38;;;;;;;3.07;2.87;;;16.10;99.90;;;;;;5096118;28;20419;-69
2023/07/26 05:30:05;;;;;;;3.63;2.27;;;16.20;99.90;;;;;;5090851;28;20514;-69
2023/07/26 05:32:30;;;;;;;3.13;2.73;;;16.30;99.90;;;;;;5101124;28;20170;-70
2023/07/26 05:34:57;;;;;;;3.77;3.00;;;16.30;99.90;;;;;;5089307;28;20431;-69
2023/07/26 05:37:23;;;;;;;4.70;2.90;;;16.30;99.90;;;;;;5085541;28;20244;-70
2023/07/26 05:39:50;;;;;;;3.93;2.93;;;16.30;99.90;;;;;;5099148;28;20438;-69
2023/07/26 05:42:15;;;;;;;2.47;2.13;;;16.30;99.90;;;;;;5092663;28;20526;-69
2023/07/26 05:44:41;;;;;;;2.80;2.50;;;16.20;99.90;;;;;;5093337;28;20557;-69
2023/07/26 05:47:09;;;;;;;2.83;2.50;;;16.30;99.90;;;;;;5096940;28;20180;-69
2023/07/26 05:49:34;;;;;;;2.77;2.57;;;16.20;99.90;;;;;;5082631;28;20193;-70
2023/07/26 05:52:00;;;;;;;3.73;3.43;;;16.20;99.90;;;;;;5091321;28;20424;-69
2023/07/26 05:54:26;;;;;;;3.23;2.43;;;16.20;99.90;;;;;;5092164;28;20177;-70
2023/07/26 05:56:51;;;;;;;2.63;2.43;;;16.20;99.90;;;;;;5095117;28;20212;-70
2023/07/26 05:59:17;;;;;;;3.67;2.53;;;16.30;99.90;;;;;;5080649;28;20228;-69
2023/07/26 06:01:42;;;;;;;3.07;2.10;;;16.40;99.90;;;;;;5079128;28;20178;-70
2023/07/26 06:04:08;;;;;;;3.37;2.53;;;16.40;99.90;;;;;;5081033;28;20279;-70
2023/07/26 06:06:33;;;;;;;3.20;2.90;;;16.30;99.90;;;;;;5098797;28;20703;-68
2023/07/26 06:08:59;;;;;;;3.90;2.80;;;16.30;99.90;;;;;;5093619;28;20591;-70
2023/07/26 06:11:24;;;;;;;2.47;2.27;;;16.30;99.90;;;;;;5093130;28;20642;-69
2023/07/26 06:13:50;;;;;;;2.83;2.63;;;16.50;99.90;;;;;;5089890;28;20177;-69
2023/07/26 06:16:16;;;;;;;2.83;2.40;;;16.80;99.90;;;;;;5087185;28;20650;-71
2023/07/26 06:18:41;;;;;;;8.97;4.10;;;17.30;99.90;;;;;;5091529;28;20216;-70
2023/07/26 06:21:07;;;;;;;8.70;5.50;;;17.90;99.90;;;;;;5082337;28;20286;-71
2023/07/26 06:23:32;;;;;;;4.83;2.37;;;18.60;99.90;;;;;;5077018;28;20189;-71
2023/07/26 06:25:58;;;;;;;2.97;2.70;;;18.90;99.90;;;;;;5086744;28;20174;-71
2023/07/26 06:28:23;;;;;;;9.00;2.80;;;19.00;99.90;;;;;;5089603;28;20177;-71
2023/07/26 06:30:49;;;;;;;2.40;2.07;;;19.10;99.90;;;;;;5085748;28;20178;-70
2023/07/26 06:33:14;;;;;;;3.17;2.47;;;19.30;99.90;;;;;;5090868;28;20654;-71
2023/07/26 06:35:40;;;;;;;3.50;2.83;;;19.50;99.90;;;;;;5082637;28;20174;-70
2023/07/26 06:38:05;;;;;;;14.87;12.30;;;19.80;99.90;;;;;;5091374;28;20169;-70
2023/07/26 06:40:31;;;;;;;3.87;3.53;;;20.10;99.90;;;;;;5088632;28;20194;-71
2023/07/26 06:42:57;;;;;;;3.53;2.90;;;20.40;99.90;;;;;;5089944;28;20180;-71
2023/07/26 06:45:22;;;;;;;4.10;2.90;;;20.50;99.90;;;;;;5082412;28;20200;-71
2023/07/26 06:47:48;;;;;;;3.60;2.73;;;20.50;99.90;;;;;;5086043;28;20178;-71
2023/07/26 06:50:14;;;;;;;3.00;1.90;;;20.50;99.90;;;;;;5086743;28;20189;-71
2023/07/26 06:52:39;;;;;;;2.30;2.10;;;20.60;99.90;;;;;;5091327;28;20174;-71
2023/07/26 06:55:05;;;;;;;3.30;2.13;;;20.90;99.90;;;;;;5082031;28;20185;-70
2023/07/26 06:57:31;;;;;;;2.57;2.10;;;21.60;99.90;;;;;;5091332;28;20177;-70
2023/07/26 06:59:56;;;;;;;2.77;2.50;;;22.20;99.90;;;;;;5086808;28;20443;-70
2023/07/26 07:02:22;;;;;;;6.43;2.83;;;22.60;99.90;;;;;;5084123;28;20217;-70
2023/07/26 07:04:47;;;;;;;2.73;2.40;;;22.70;99.90;;;;;;5084435;28;20201;-70
2023/07/26 07:07:13;;;;;;;3.50;2.40;;;22.70;99.90;;;;;;5091886;28;20187;-70
2023/07/26 07:09:38;;;;;;;2.37;1.80;;;23.10;99.90;;;;;;5083926;28;20219;-71
2023/07/26 07:12:06;;;;;;;4.40;3.13;;;24.80;99.90;;;;;;5084688;28;20183;-70
2023/07/26 07:14:33;;;;;;;5.67;2.67;;;26.40;95.40;;;;;;5091240;28;20199;-71
2023/07/26 07:16:59;;;;;;;2.43;2.03;;;27.60;80.40;;;;;;5089682;28;20431;-72
2023/07/26 07:19:24;;;;;;;3.00;2.27;;;28.10;70.60;;;;;;5086982;28;20964;-72
2023/07/26 07:21:51;;;;;;;4.83;2.10;;;29.00;65.50;;;;;;5089456;28;20461;-72
2023/07/26 07:24:16;;;;;;;4.20;2.37;;;29.90;60.70;;;;;;5081787;28;20209;-72
2023/07/26 07:26:42;;;;;;;5.63;3.70;;;30.80;57.90;;;;;;5089878;28;20782;-72
2023/07/26 07:29:07;;;;;;;3.97;2.47;;;31.90;52.30;;;;;;5089414;28;20198;-72
2023/07/26 07:31:33;;;;;;;6.37;2.50;;;32.60;48.70;;;;;;5090437;28;20169;-72
2023/07/26 07:33:58;;;;;;;2.33;1.97;;;32.90;45.50;;;;;;5092160;28;20162;-69
2023/07/26 07:36:24;;;;;;;2.63;1.93;;;33.50;46.80;;;;;;5080736;28;20185;-69
2023/07/26 07:38:49;;;;;;;7.23;2.63;;;34.30;44.40;;;;;;5090550;28;20565;-69
2023/07/26 07:41:15;;;;;;;3.63;1.83;;;35.60;42.30;;;;;;5091685;28;20511;-69
2023/07/26 07:43:40;;;;;;;2.50;2.30;;;36.70;40.60;;;;;;5088032;28;21799;-69
2023/07/26 07:46:06;;;;;;;2.60;2.40;;;37.60;39.10;;;;;;5085382;28;20635;-70
2023/07/26 07:48:33;;;;;;;8.20;4.60;;;38.80;38.60;;;;;;5091798;28;20619;-69
2023/07/26 07:50:58;;;;;;;4.20;2.50;;;39.70;34.80;;;;;;5082819;28;20189;-70
2023/07/26 07:53:24;;;;;;;3.47;2.83;;;40.10;33.40;;;;;;5085900;28;20767;-69
2023/07/26 07:55:49;;;;;;;4.50;2.23;;;40.50;31.10;;;;;;5086573;28;20177;-72
2023/07/26 07:58:15;;;;;;;3.27;2.97;;;40.40;31.10;;;;;;5091717;28;20235;-68
2023/07/26 08:00:40;;;;;;;3.20;2.40;;;39.60;29.80;;;;;;5080569;28;20635;-69
2023/07/26 08:03:06;;;;;;;2.57;2.37;;;38.90;31.90;;;;;;5087381;28;20856;-69
2023/07/26 08:05:35;;;;;;;7.40;2.77;;;38.70;30.70;;;;;;5086792;28;20281;-70
2023/07/26 08:08:01;;;;;;;2.80;2.50;;;38.30;31.20;;;;;;5087392;28;20204;-70
2023/07/26 08:10:27;;;;;;;4.53;3.00;;;38.40;31.40;;;;;;5095436;28;20447;-70
2023/07/26 08:12:52;;;;;;;3.40;2.20;;;38.30;30.60;;;;;;5095497;28;20168;-69
2023/07/26 08:15:18;;;;;;;3.03;2.37;;;38.20;31.40;;;;;;5089593;28;20224;-68
2023/07/26 08:17:43;;;;;;;3.33;2.53;;;37.40;31.60;;;;;;5082602;28;20190;-69
2023/07/26 08:20:10;;;;;;;2.20;1.93;;;37.00;32.10;;;;;;5093163;28;20600;-68
2023/07/26 08:22:36;;;;;;;4.30;2.97;;;37.30;32.80;;;;;;5088322;28;20173;-69
2023/07/26 08:25:02;;;;;;;4.53;2.90;;;37.40;32.20;;;;;;5094933;28;20451;-68
2023/07/26 08:27:27;;;;;;;4.23;2.43;;;37.00;31.80;;;;;;5095271;28;20162;-68
2023/07/26 08:29:53;;;;;;;3.23;2.67;;;36.40;31.50;;;;;;5092478;28;20206;-68
2023/07/26 08:32:18;;;;;;;2.93;2.27;;;35.90;32.20;;;;;;5095078;28;20172;-71
2023/07/26 08:34:44;;;;;;;2.37;2.13;;;35.90;33.70;;;;;;5095112;28;20258;-69
2023/07/26 08:37:09;;;;;;;3.97;2.50;;;35.50;32.00;;;;;;5088950;28;20177;-68
2023/07/26 08:39:35;;;;;;;2.83;2.60;;;34.90;33.40;;;;;;5090679;28;20223;-68
2023/07/26 08:42:01;;;;;;;4.40;2.83;;;35.00;35.00;;;;;;5094854;28;20207;-69
2023/07/26 08:44:28;;;;;;;3.20;2.57;;;35.60;34.30;;;;;;5093627;28;20283;-70
2023/07/26 08:46:54;;;;;;;4.10;2.57;;;36.50;34.60;;;;;;5094428;28;20810;-70
2023/07/26 08:49:20;;;;;;;3.97;2.40;;;36.00;32.00;;;;;;5094720;28;20942;-70
2023/07/26 08:51:46;;;;;;;3.17;2.87;;;34.70;32.60;;;;;;5092343;28;20419;-68
2023/07/26 08:54:13;;;;;;;3.60;3.23;;;33.10;34.00;;;;;;5091759;28;20485;-69
2023/07/26 08:56:39;;;;;;;3.77;2.30;;;31.70;35.60;;;;;;5093079;28;20452;-68
2023/07/26 08:59:04;;;;;;;3.37;2.80;;;30.80;37.80;;;;;;5084445;28;20509;-69
2023/07/26 09:01:30;;;;;;;2.70;2.47;;;29.80;38.80;;;;;;5090399;28;20182;-68
2023/07/26 09:03:56;;;;;;;2.53;2.33;;;28.80;40.20;;;;;;5085892;28;20193;-68
2023/07/26 09:06:22;;;;;;;11.03;4.47;;;27.80;41.70;;;;;;5086870;28;20332;-69
2023/07/26 09:08:48;;;;;;;5.93;2.70;;;26.80;43.20;;;;;;5090901;28;20201;-70
2023/07/26 09:11:24;;;;;;;3.83;3.43;;;26.00;45.00;;;;;;5085369;28;20196;-70
2023/07/26 09:13:57;;;;;;;4.03;2.33;;;25.30;46.40;;;;;;5091611;28;20486;-69
2023/07/26 09:16:27;;;;;;;2.27;1.97;;;25.60;48.90;;;;;;5093902;28;20912;-69
2023/07/26 09:19:04;;;;;;;7.73;3.70;;;27.70;48.20;;;;;;5092729;28;20532;-69
2023/07/26 09:21:36;;;;;;;4.13;3.03;;;30.30;43.70;;;;;;5091926;28;20891;-70
2023/07/26 09:24:03;;;;;;;6.57;3.10;;;32.30;39.90;;;;;;5085004;28;20482;-71
2023/07/26 09:26:35;;;;;;;2.57;2.03;;;34.20;38.10;;;;;;5087879;28;20435;-71
2023/07/26 09:29:01;;;;;;;3.20;2.77;;;36.30;35.50;;;;;;5088906;28;20447;-71
2023/07/26 09:31:33;;;;;;;2.17;1.97;;;37.00;31.50;;;;;;5090515;28;20408;-70
2023/07/26 09:34:06;;;;;;;4.33;2.63;;;38.40;32.80;;;;;;5092805;28;20424;-70
2023/07/26 09:36:47;;;;;;;3.20;2.43;;;39.70;30.30;;;;;;5090181;28;20459;-70
2023/07/26 09:39:14;;;;;;;7.33;3.20;;;38.50;29.80;;;;;;5086045;28;20978;-70
2023/07/26 09:41:40;;;;;;;3.40;3.10;;;35.70;36.10;;;;;;5087359;28;20796;-69
2023/07/26 09:44:07;;;;;;;6.83;2.73;;;32.80;35.80;;;;;;5085573;28;21007;-69
2023/07/26 09:46:52;;;;;;;2.97;2.67;;;31.10;38.90;;;;;;5092264;28;20434;-69
2023/07/26 09:49:19;;;;;;;5.07;3.13;;;29.30;41.40;;;;;;5093553;28;20443;-69
2023/07/26 09:51:45;;;;;;;3.37;2.63;;;27.80;43.80;;;;;;5091712;28;20951;-69
2023/07/26 09:54:11;;;;;;;3.00;2.63;;;26.90;46.60;;;;;;5092636;28;20435;-68
2023/07/26 09:56:39;;;;;;;3.73;3.00;;;26.20;49.30;;;;;;5084381;28;20476;-69
2023/07/26 09:59:09;;;;;;;3.70;2.50;;;25.90;52.20;;;;;;5072408;28;20459;-69
2023/07/26 10:01:41;;;;;;;3.77;2.57;;;25.70;55.00;;;;;;5093130;28;20411;-69
2023/07/26 10:04:30;;;;;;;3.03;2.50;;;25.50;53.10;;;;;;5085886;28;20459;-70
2023/07/26 10:06:57;;;;;;;5.83;3.23;;;25.30;55.10;;;;;;5085891;28;20432;-70
2023/07/26 10:09:25;;;;;;;2.70;2.50;;;25.00;56.50;;;;;;5093063;28;20492;-69
2023/07/26 10:11:53;;;;;;;2.83;2.03;;;24.70;58.50;;;;;;5093307;28;20417;-70
2023/07/26 10:14:20;;;;;;;3.17;2.37;;;24.40;60.00;;;;;;5092983;28;20415;-69
2023/07/26 10:16:46;;;;;;;2.67;2.47;;;24.10;62.90;;;;;;5085601;28;20806;-69
2023/07/26 10:19:14;;;;;;;2.90;2.50;;;23.70;68.50;;;;;;5092824;28;20534;-69
2023/07/26 10:21:41;;;;;;;2.40;2.20;;;23.10;75.50;;;;;;5083003;28;20447;-69
2023/07/26 10:24:09;;;;;;;2.90;2.10;;;22.70;83.60;;;;;;5084861;28;20542;-69
2023/07/26 10:26:36;;;;;;;2.90;2.30;;;22.30;92.70;;;;;;5087377;28;20424;-69
2023/07/26 10:29:02;;;;;;;2.80;2.50;;;22.20;99.90;;;;;;5088639;28;20471;-69
2023/07/26 10:31:29;;;;;;;4.20;2.47;;;22.20;99.90;;;;;;5085937;28;20474;-69
2023/07/26 10:33:56;;;;;;;2.10;1.90;;;24.30;99.90;;;;;;5090067;28;20642;-70
2023/07/26 10:36:28;;;;;;;2.23;2.03;;;27.90;99.90;;;;;;5083488;28;20428;-70
2023/07/26 10:38:53;;;;;;;3.23;2.67;;;29.00;84.80;;;;;;5105484;27;20454;-70
2023/07/26 10:41:26;;;;;;;2.80;2.10;;;29.10;74.00;;;;;;5091918;28;20493;-69
2023/07/26 10:44:04;;;;;;;2.90;1.60;;;29.20;68.70;;;;;;5083195;28;20556;-69
2023/07/26 10:46:45;;;;;;;3.30;2.17;;;28.90;64.70;;;;;;5082137;28;20439;-70
2023/07/26 10:49:28;;;;;;;1.93;1.73;;;28.20;62.40;;;;;;5084507;28;20827;-69
2023/07/26 10:52:02;;;;;;;2.93;2.10;;;27.20;63.10;;;;;;5087165;28;20518;-69
2023/07/26 10:54:47;;;;;;;4.73;2.10;;;26.30;63.90;;;;;;5096552;28;20435;-70
2023/07/26 10:57:26;;;;;;;3.00;2.47;;;25.40;69.10;;;;;;5078869;28;21132;-70
2023/07/26 11:00:06;;;;;;;1.70;1.60;;;24.60;75.40;;;;;;5080437;28;20448;-70
2023/07/26 11:02:45;;;;;;;6.33;4.40;;;23.80;83.50;;;;;;5081981;28;20432;-69
2023/07/26 11:05:12;;;;;;;5.63;3.83;;;23.10;92.20;;;;;;5082883;28;20459;-69
2023/07/26 11:07:54;;;;;;;2.70;2.50;;;22.50;99.50;;;;;;5088840;28;20495;-69
2023/07/26 11:10:48;;;;;;;5.90;3.23;;;21.90;99.90;;;;;;5081194;28;20448;-69
2023/07/26 11:13:18;;;;;;;3.57;2.60;;;21.40;99.90;;;;;;5085897;28;20399;-69
2023/07/26 11:15:45;;;;;;;6.70;3.20;;;20.90;99.90;;;;;;5087425;28;20783;-71
2023/07/26 11:18:11;;;;;;;4.33;3.00;;;20.50;99.90;;;;;;5089443;28;20424;-68
2023/07/26 11:20:39;;;;;;;3.57;3.10;;;20.10;99.90;;;;;;5088701;28;20443;-68
2023/07/26 11:23:24;;;;;;;3.10;2.50;;;19.80;99.90;;;;;;5090845;28;20435;-68
2023/07/26 11:25:52;;;;;;;3.87;3.57;;;19.60;99.90;;;;;;5088395;28;20554;-68
2023/07/26 11:28:18;;;;;;;4.90;3.57;;;19.20;99.90;;;;;;5091797;28;20468;-69
2023/07/26 11:30:51;;;;;;;3.67;3.30;;;19.10;99.90;;;;;;5090812;28;20487;-69
2023/07/26 11:33:37;;;;;;;6.60;2.93;;;18.90;99.90;;;;;;5092782;28;20180;-69
2023/07/26 11:36:05;;;;;;;5.20;3.23;;;18.80;99.90;;;;;;5081345;28;20431;-69
2023/07/26 11:38:31;;;;;;;5.70;3.07;;;18.70;99.90;;;;;;5095009;28;20912;-69
2023/07/26 11:40:57;;;;;;;5.90;3.77;;;18.60;99.90;;;;;;5093147;28;20400;-69
2023/07/26 11:43:30;;;;;;;6.70;3.97;;;18.50;99.90;;;;;;5091036;28;20162;-68
2023/07/26 11:45:56;;;;;;;6.20;4.03;;;18.60;99.90;;;;;;5088185;28;20427;-68
2023/07/26 11:48:22;;;;;;;4.70;3.93;;;19.20;99.90;;;;;;5084114;28;20465;-68
2023/07/26 11:50:53;;;;;;;11.70;8.27;;;21.10;99.90;;;;;;5091451;28;20955;-68
2023/07/26 11:53:26;;;;;;;6.70;3.23;;;25.20;99.90;;;;;;5094858;28;20169;-69
2023/07/26 11:55:52;;;;;;;7.60;2.47;;;29.80;99.90;;;;;;5085064;28;20434;-69
2023/07/26 11:58:18;;;;;;;2.70;2.00;;;33.90;91.10;;;;;;5088747;28;20423;-69
2023/07/26 12:00:44;;;;;;;3.37;2.50;;;37.00;61.60;;;;;;5090475;28;20178;-69
2023/07/26 12:03:10;;;;;;;3.47;2.30;;;39.30;47.20;;;;;;5091398;28;20417;-70
2023/07/26 12:05:39;;;;;;;3.00;2.10;;;41.40;45.10;;;;;;5089896;28;20197;-70
2023/07/26 12:08:06;;;;;;;4.20;3.83;;;43.20;38.70;;;;;;5083119;28;20665;-70
2023/07/26 12:10:38;;;;;;;3.57;3.00;;;44.80;36.90;;;;;;5087123;28;20473;-70
2023/07/26 12:13:09;;;;;;;2.50;2.30;;;45.90;31.60;;;;;;5085017;28;20921;-71
2023/07/26 12:15:54;;;;;;;2.90;2.20;;;47.00;32.00;;;;;;5088673;28;20416;-70
2023/07/26 12:18:20;;;;;;;2.50;2.30;;;48.10;31.30;;;;;;5090263;28;20754;-72
2023/07/26 12:20:58;;;;;;;2.00;1.90;;;49.10;29.80;;;;;;5092219;28;20423;-71
2023/07/26 12:23:25;;;;;;;3.33;2.73;;;50.10;28.40;;;;;;5088930;28;20442;-71
2023/07/26 12:25:53;;;;;;;3.50;3.20;;;50.80;25.50;;;;;;5093072;28;20473;-70
2023/07/26 12:28:19;;;;;;;2.37;2.10;;;50.60;25.00;;;;;;5080250;28;20537;-72
2023/07/26 12:30:55;;;;;;;2.90;2.70;;;49.30;25.40;;;;;;5082198;28;20893;-70
2023/07/26 12:33:21;;;;;;;2.73;2.53;;;47.40;23.80;;;;;;5086732;28;20166;-70
2023/07/26 12:35:47;;;;;;;4.57;3.00;;;44.50;25.10;;;;;;5094214;28;20424;-70
2023/07/26 12:38:14;;;;;;;3.50;3.20;;;43.10;27.00;;;;;;5092950;28;20406;-70
2023/07/26 12:40:40;;;;;;;3.70;2.60;;;42.50;27.20;;;;;;5102158;28;20200;-70
2023/07/26 12:43:27;;;;;;;3.10;2.80;;;40.60;27.10;;;;;;5094972;28;20392;-69
2023/07/26 12:45:54;;;;;;;3.47;3.17;;;38.40;29.80;;;;;;5079155;28;20456;-69